createdAt,value
2023-05-05T00:00:05.938Z,14.05
2023-05-05T00:03:09.395Z,14.30
2023-05-05T00:06:12.863Z,13.95
2023-05-05T00:09:16.188Z,13.35
2023-05-05T00:12:19.597Z,14.35
2023-05-05T00:15:24.226Z,14.82
2023-05-05T00:18:28.250Z,17.20
2023-05-05T00:21:31.447Z,18.08
2023-05-05T00:24:35.042Z,18.73
2023-05-05T00:27:40.857Z,17.08
2023-05-05T00:30:46.153Z,16.50
2023-05-05T00:33:49.364Z,17.67
2023-05-05T00:36:52.572Z,19.02
2023-05-05T00:39:56.283Z,18.10
2023-05-05T00:43:00.638Z,21.15
2023-05-05T00:46:10.198Z,24.15
2023-05-05T00:49:13.547Z,27.10
2023-05-05T00:52:16.876Z,21.25
2023-05-05T00:55:20.781Z,23.45
2023-05-05T00:58:24.117Z,22.15
2023-05-05T01:01:28.810Z,20.77
2023-05-05T01:04:32.151Z,18.38
2023-05-05T01:07:43.508Z,19.70
2023-05-05T01:10:51.147Z,18.08
2023-05-05T01:14:02.604Z,15.60
2023-05-05T01:17:18.885Z,15.77
2023-05-05T01:20:28.855Z,15.25
2023-05-05T01:24:07.861Z,15.55
2023-05-05T01:27:35.167Z,15.13
2023-05-05T01:31:01.676Z,15.18
2023-05-05T01:34:11.022Z,14.60
2023-05-05T01:37:21.422Z,14.55
2023-05-05T01:40:29.064Z,14.68
2023-05-05T01:43:36.186Z,14.77
2023-05-05T01:46:39.491Z,15.15
2023-05-05T01:49:47.892Z,14.38
2023-05-05T01:52:52.599Z,13.30
2023-05-05T01:55:57.619Z,14.35
2023-05-05T01:59:02.967Z,14.93
2023-05-05T02:02:08.251Z,15.95
2023-05-05T02:05:14.494Z,15.25
2023-05-05T02:08:18.604Z,15.32
2023-05-05T02:11:22.550Z,15.60
2023-05-05T02:14:30.282Z,16.85
2023-05-05T02:17:33.869Z,17.25
2023-05-05T02:20:40.834Z,18.33
2023-05-05T02:23:44.094Z,20.65
2023-05-05T02:26:48.535Z,20.10
2023-05-05T02:29:54.865Z,19.38
2023-05-05T02:33:05.639Z,18.67
2023-05-05T02:36:23.400Z,19.70
2023-05-05T02:39:39.667Z,18.52
2023-05-05T02:42:49.124Z,18.73
2023-05-05T02:45:52.628Z,18.88
2023-05-05T02:48:56.921Z,19.52
2023-05-05T02:52:02.034Z,18.75
2023-05-05T02:55:10.638Z,18.33
2023-05-05T02:58:25.269Z,18.23
2023-05-05T03:01:37.622Z,17.65
2023-05-05T03:04:48.077Z,18.95
2023-05-05T03:07:56.946Z,17.40
2023-05-05T03:11:08.969Z,18.55
2023-05-05T03:14:18.287Z,17.65
2023-05-05T03:17:25.518Z,17.67
2023-05-05T03:20:29.893Z,17.88
2023-05-05T03:23:37.373Z,17.45
2023-05-05T03:26:45.837Z,16.98
2023-05-05T03:29:49.525Z,17.05
2023-05-05T03:32:52.810Z,17.25
2023-05-05T03:35:56.539Z,16.83
2023-05-05T03:39:01.208Z,17.75
2023-05-05T03:42:08.378Z,16.80
2023-05-05T03:45:12.678Z,16.70
2023-05-05T03:48:16.517Z,16.52
2023-05-05T03:51:19.898Z,17.23
2023-05-05T03:54:24.717Z,16.75
2023-05-05T03:57:28.549Z,16.75
2023-05-05T04:00:32.284Z,15.73
2023-05-05T04:03:35.766Z,16.08
2023-05-05T04:06:38.985Z,16.38
2023-05-05T04:09:45.416Z,16.10
2023-05-05T04:12:49.206Z,15.00
2023-05-05T04:15:53.030Z,15.23
2023-05-05T04:18:56.468Z,16.25
2023-05-05T04:21:59.759Z,15.05
2023-05-05T04:25:05.110Z,14.48
2023-05-05T04:28:08.328Z,14.73
2023-05-05T04:31:12.277Z,13.88
2023-05-05T04:34:18.403Z,13.75
2023-05-05T04:37:22.381Z,13.88
2023-05-05T04:40:27.480Z,16.75
2023-05-05T04:43:32.252Z,14.32
2023-05-05T04:46:35.709Z,11.85
2023-05-05T04:49:39.119Z,12.40
2023-05-05T04:52:43.627Z,11.32
2023-05-05T04:55:48.651Z,10.80
2023-05-05T04:58:51.855Z,10.45
2023-05-05T05:01:56.037Z,10.80
2023-05-05T05:05:01.659Z,11.10
2023-05-05T05:08:05.078Z,11.15
2023-05-05T05:11:09.866Z,10.88
2023-05-05T05:14:13.189Z,9.73
2023-05-05T05:17:16.396Z,10.65
2023-05-05T05:20:19.748Z,12.82
2023-05-05T05:23:23.404Z,12.93
2023-05-05T05:26:28.986Z,11.93
2023-05-05T05:29:32.224Z,11.48
2023-05-05T05:32:36.736Z,12.57
2023-05-05T05:35:40.976Z,11.98
2023-05-05T05:38:45.767Z,11.18
2023-05-05T05:41:50.420Z,11.38
2023-05-05T05:44:54.571Z,11.95
2023-05-05T05:47:58.058Z,11.73
2023-05-05T05:51:02.460Z,15.60
2023-05-05T05:54:05.860Z,12.10
2023-05-05T05:57:10.636Z,13.00
2023-05-05T06:00:15.774Z,11.82
2023-05-05T06:03:25.148Z,11.60
2023-05-05T06:06:28.826Z,11.88
2023-05-05T06:09:32.148Z,12.00
2023-05-05T06:12:37.564Z,11.07
2023-05-05T06:15:40.842Z,7.95
2023-05-05T06:18:44.737Z,7.53
2023-05-05T06:21:47.997Z,7.60
2023-05-05T06:24:51.954Z,8.65
2023-05-05T06:27:57.441Z,8.95
2023-05-05T06:31:00.958Z,8.35
2023-05-05T06:34:04.165Z,7.75
2023-05-05T06:37:07.347Z,8.38
2023-05-05T06:40:11.511Z,7.97
2023-05-05T06:43:16.553Z,7.72
2023-05-05T06:46:24.553Z,6.57
2023-05-05T06:49:27.756Z,8.32
2023-05-05T06:52:30.999Z,9.18
2023-05-05T06:55:34.228Z,8.52
2023-05-05T06:58:38.992Z,7.47
2023-05-05T07:01:42.351Z,7.78
2023-05-05T07:04:45.571Z,7.57
2023-05-05T07:07:53.599Z,7.93
2023-05-05T07:10:56.943Z,7.70
2023-05-05T07:14:01.617Z,7.10
2023-05-05T07:17:04.856Z,6.80
2023-05-05T07:20:09.912Z,7.22
2023-05-05T07:23:13.903Z,5.97
2023-05-05T07:26:17.227Z,5.82
2023-05-05T07:29:21.970Z,5.97
2023-05-05T07:32:25.961Z,5.63
2023-05-05T07:35:30.127Z,5.60
2023-05-05T07:38:33.384Z,5.15
2023-05-05T07:41:36.736Z,5.95
2023-05-05T07:44:41.597Z,5.28
2023-05-05T07:47:44.969Z,3.60
2023-05-05T07:50:48.233Z,3.38
2023-05-05T07:53:51.473Z,3.03
2023-05-05T07:56:54.725Z,3.10
2023-05-05T07:59:59.453Z,3.03
2023-05-05T08:03:02.725Z,3.45
2023-05-05T08:06:09.603Z,3.40
2023-05-05T08:09:12.913Z,3.15
2023-05-05T08:12:19.485Z,2.97
2023-05-05T08:15:24.187Z,2.80
2023-05-05T08:18:27.599Z,2.83
2023-05-05T08:21:31.872Z,2.88
2023-05-05T08:24:35.366Z,4.53
2023-05-05T08:27:41.976Z,3.67
2023-05-05T08:30:47.192Z,3.25
2023-05-05T08:33:50.351Z,3.45
2023-05-05T08:36:53.515Z,3.65
2023-05-05T08:39:58.029Z,3.60
2023-05-05T08:43:02.078Z,3.50
2023-05-05T08:46:07.608Z,4.15
2023-05-05T08:49:15.449Z,3.53
2023-05-05T08:52:23.540Z,3.90
2023-05-05T08:55:30.020Z,3.50
2023-05-05T08:58:33.924Z,3.65
2023-05-05T09:01:39.270Z,3.30
2023-05-05T09:04:43.263Z,3.38
2023-05-05T09:07:47.359Z,3.42
2023-05-05T09:10:53.284Z,3.10
2023-05-05T09:13:56.693Z,3.60
2023-05-05T09:17:01.408Z,4.38
2023-05-05T09:20:07.275Z,3.83
2023-05-05T09:23:12.085Z,3.70
2023-05-05T09:26:15.356Z,3.53
2023-05-05T09:29:23.186Z,4.10
2023-05-05T09:32:30.423Z,3.70
2023-05-05T09:35:49.776Z,4.10
2023-05-05T09:39:06.290Z,4.15
2023-05-05T09:42:19.127Z,3.88
2023-05-05T09:45:28.853Z,4.13
2023-05-05T09:48:34.299Z,4.50
2023-05-05T09:51:37.789Z,4.38
2023-05-05T09:54:41.097Z,4.13
2023-05-05T09:57:44.464Z,3.92
2023-05-05T10:00:47.985Z,4.32
2023-05-05T10:03:55.775Z,3.60
2023-05-05T10:06:59.969Z,3.28
2023-05-05T10:10:04.910Z,3.58
2023-05-05T10:13:08.215Z,3.30
2023-05-05T10:16:13.720Z,3.95
2023-05-05T10:19:19.712Z,3.70
2023-05-05T10:22:24.518Z,3.35
2023-05-05T10:25:31.784Z,3.55
2023-05-05T10:28:38.380Z,3.30
2023-05-05T10:31:47.757Z,4.10
2023-05-05T10:34:56.948Z,17.58
2023-05-05T10:38:02.209Z,3.47
2023-05-05T10:41:05.698Z,3.42
2023-05-05T10:44:10.770Z,3.83
2023-05-05T10:47:14.884Z,4.00
2023-05-05T10:50:37.440Z,3.53
2023-05-05T10:53:51.032Z,3.55
2023-05-05T10:56:54.828Z,3.53
2023-05-05T10:59:58.153Z,3.58
2023-05-05T11:03:23.590Z,3.53
2023-05-05T11:06:29.477Z,3.60
2023-05-05T11:09:33.108Z,2.83
2023-05-05T11:13:20.625Z,3.40
2023-05-05T11:16:47.630Z,3.40
2023-05-05T11:19:52.440Z,3.78
2023-05-05T11:23:25.119Z,3.70
2023-05-05T11:26:51.205Z,3.95
2023-05-05T11:30:08.178Z,3.83
2023-05-05T11:33:28.334Z,3.72
2023-05-05T11:36:41.774Z,3.50
2023-05-05T11:40:01.551Z,3.30
2023-05-05T11:43:08.256Z,3.55
2023-05-05T11:46:11.962Z,3.40
2023-05-05T11:49:28.155Z,3.60
2023-05-05T11:52:31.348Z,3.10
2023-05-05T11:55:36.288Z,15.85
2023-05-05T11:58:39.554Z,3.60
2023-05-05T12:01:43.145Z,3.05
2023-05-05T12:04:47.145Z,7.72
2023-05-05T12:07:58.695Z,3.15
2023-05-05T12:11:07.990Z,3.00
2023-05-05T12:14:12.581Z,3.20
2023-05-05T12:17:16.084Z,3.30
2023-05-05T12:20:30.358Z,3.35
2023-05-05T12:23:39.250Z,3.08
2023-05-05T12:26:44.179Z,3.63
2023-05-05T12:29:47.557Z,2.80
2023-05-05T12:32:50.801Z,3.13
2023-05-05T12:35:54.734Z,3.28
2023-05-05T12:38:57.976Z,2.90
2023-05-05T12:42:06.727Z,5.00
2023-05-05T12:45:28.792Z,3.88
2023-05-05T12:48:33.409Z,2.90
2023-05-05T12:51:37.748Z,6.80
2023-05-05T12:54:54.859Z,4.38
2023-05-05T12:58:04.548Z,3.40
2023-05-05T13:01:11.490Z,3.38
2023-05-05T13:04:16.153Z,3.75
2023-05-05T13:07:20.745Z,3.70
2023-05-05T13:10:24.986Z,3.53
2023-05-05T13:13:33.394Z,3.33
2023-05-05T13:16:36.687Z,3.78
2023-05-05T13:19:46.036Z,3.30
2023-05-05T13:22:49.317Z,3.70
2023-05-05T13:25:52.801Z,3.67
2023-05-05T13:28:57.664Z,3.42
2023-05-05T13:32:01.111Z,3.88
2023-05-05T13:35:04.380Z,3.47
2023-05-05T13:38:07.624Z,3.45
2023-05-05T13:41:10.841Z,3.33
2023-05-05T13:44:15.477Z,3.88
2023-05-05T13:47:18.791Z,5.10
2023-05-05T13:50:22.326Z,3.30
2023-05-05T13:53:25.521Z,3.42
2023-05-05T13:56:29.154Z,3.00
2023-05-05T13:59:33.805Z,3.55
2023-05-05T14:02:37.058Z,3.72
2023-05-05T14:05:42.581Z,3.83
2023-05-05T14:08:46.203Z,3.80
2023-05-05T14:11:49.441Z,3.53
2023-05-05T14:14:54.236Z,3.83
2023-05-05T14:17:57.914Z,3.90
2023-05-05T14:21:01.180Z,3.78
2023-05-05T14:24:04.617Z,5.25
2023-05-05T14:27:07.890Z,53.22
2023-05-05T14:30:13.480Z,4.85
2023-05-05T14:33:16.917Z,4.07
2023-05-05T14:36:20.228Z,3.80
2023-05-05T14:39:23.641Z,3.58
2023-05-05T14:42:27.002Z,3.92
2023-05-05T14:45:32.746Z,3.83
2023-05-05T14:48:36.280Z,4.00
2023-05-05T14:51:39.538Z,3.75
2023-05-05T14:54:42.793Z,4.10
2023-05-05T14:57:46.061Z,3.35
2023-05-05T15:00:52.560Z,3.33
2023-05-05T15:03:56.202Z,4.10
2023-05-05T15:06:59.588Z,3.63
2023-05-05T15:10:02.956Z,3.67
2023-05-05T15:13:06.442Z,3.25
2023-05-05T15:16:11.531Z,3.53
2023-05-05T15:19:14.991Z,3.63
2023-05-05T15:22:18.394Z,3.45
2023-05-05T15:25:22.278Z,4.30
2023-05-05T15:28:25.629Z,4.90
2023-05-05T15:31:30.598Z,3.60
2023-05-05T15:34:34.033Z,3.33
2023-05-05T15:37:37.768Z,3.53
2023-05-05T15:40:41.249Z,3.03
2023-05-05T15:43:45.141Z,3.30
2023-05-05T15:46:50.660Z,3.50
2023-05-05T15:49:54.054Z,3.30
2023-05-05T15:52:58.838Z,3.20
2023-05-05T15:56:02.546Z,3.40
2023-05-05T15:59:05.748Z,3.50
2023-05-05T16:02:10.340Z,3.38
2023-05-05T16:05:13.771Z,22.88
2023-05-05T16:08:17.050Z,5.80
2023-05-05T16:11:22.388Z,3.53
2023-05-05T16:14:27.790Z,3.28
2023-05-05T16:17:32.789Z,4.22
2023-05-05T16:20:36.178Z,3.28
2023-05-05T16:23:39.590Z,3.55
2023-05-05T16:26:42.860Z,3.42
2023-05-05T16:29:46.208Z,3.58
2023-05-05T16:32:51.825Z,3.58
2023-05-05T16:35:55.157Z,4.20
2023-05-05T16:38:58.931Z,3.75
2023-05-05T16:42:03.047Z,3.58
2023-05-05T16:45:07.957Z,5.35
2023-05-05T16:48:14.562Z,6.28
2023-05-05T16:51:17.948Z,4.65
2023-05-05T16:54:21.251Z,4.38
2023-05-05T16:57:24.754Z,4.50
2023-05-05T17:00:28.191Z,5.22
2023-05-05T17:03:33.212Z,11.18
2023-05-05T17:06:37.247Z,7.25
2023-05-05T17:09:42.021Z,5.47
2023-05-05T17:12:45.429Z,4.95
2023-05-05T17:15:48.841Z,4.85
2023-05-05T17:18:54.956Z,5.20
2023-05-05T17:21:58.316Z,4.63
2023-05-05T17:25:01.747Z,4.68
2023-05-05T17:28:05.755Z,4.90
2023-05-05T17:31:09.053Z,4.70
2023-05-05T17:34:14.478Z,4.32
2023-05-05T17:37:18.058Z,4.32
2023-05-05T17:40:21.406Z,4.38
2023-05-05T17:43:24.878Z,5.00
2023-05-05T17:46:28.389Z,4.70
2023-05-05T17:49:34.304Z,4.90
2023-05-05T17:52:38.087Z,53.75
2023-05-05T17:55:47.818Z,8.25
2023-05-05T17:58:51.435Z,5.50
2023-05-05T18:01:56.260Z,6.88
2023-05-05T18:05:01.109Z,5.88
2023-05-05T18:08:04.773Z,5.63
2023-05-05T18:11:08.114Z,6.28
2023-05-05T18:14:11.692Z,6.63
2023-05-05T18:17:15.220Z,6.43
2023-05-05T18:20:20.421Z,5.63
2023-05-05T18:23:24.492Z,5.53
2023-05-05T18:26:27.994Z,5.65
2023-05-05T18:29:31.489Z,6.07
2023-05-05T18:32:35.036Z,5.88
2023-05-05T18:35:39.784Z,5.78
2023-05-05T18:38:43.321Z,5.75
2023-05-05T18:41:47.253Z,6.38
2023-05-05T18:44:51.530Z,5.40
2023-05-05T18:47:55.090Z,4.95
2023-05-05T18:51:04.857Z,5.15
2023-05-05T18:54:08.288Z,5.60
2023-05-05T18:57:11.727Z,5.20
2023-05-05T19:00:15.768Z,5.47
2023-05-05T19:03:19.346Z,5.25
2023-05-05T19:06:24.176Z,5.00
2023-05-05T19:09:27.617Z,7.35
2023-05-05T19:12:31.732Z,6.05
2023-05-05T19:15:35.119Z,5.45
2023-05-05T19:18:38.900Z,4.57
2023-05-05T19:21:46.908Z,4.60
2023-05-05T19:24:51.977Z,5.22
2023-05-05T19:27:55.373Z,4.88
2023-05-05T19:30:59.012Z,5.30
2023-05-05T19:34:04.373Z,5.38
2023-05-05T19:37:10.151Z,4.70
2023-05-05T19:40:14.135Z,4.57
2023-05-05T19:43:17.807Z,5.28
2023-05-05T19:46:22.241Z,5.00
2023-05-05T19:49:27.009Z,4.95
2023-05-05T19:52:32.942Z,4.95
2023-05-05T19:55:37.519Z,5.18
2023-05-05T19:58:59.137Z,5.70
2023-05-05T20:02:04.587Z,5.43
2023-05-05T20:05:11.802Z,5.43
2023-05-05T20:08:17.838Z,5.00
2023-05-05T20:11:22.035Z,4.95
2023-05-05T20:14:25.600Z,4.90
2023-05-05T20:17:29.992Z,4.30
2023-05-05T20:20:33.370Z,4.88
2023-05-05T20:23:38.269Z,4.40
2023-05-05T20:26:41.518Z,4.18
2023-05-05T20:29:44.870Z,4.60
2023-05-05T20:32:48.139Z,4.38
2023-05-05T20:35:51.567Z,4.43
2023-05-05T20:38:56.249Z,4.40
2023-05-05T20:41:59.512Z,4.47
2023-05-05T20:45:03.187Z,4.38
2023-05-05T20:48:09.835Z,4.50
2023-05-05T20:51:13.161Z,4.63
2023-05-05T20:54:17.862Z,4.25
2023-05-05T20:57:21.281Z,4.15
2023-05-05T21:00:27.158Z,4.80
2023-05-05T21:03:30.590Z,4.50
2023-05-05T21:06:34.161Z,4.20
2023-05-05T21:09:38.930Z,4.93
2023-05-05T21:12:42.497Z,4.50
2023-05-05T21:15:45.785Z,5.00
2023-05-05T21:18:49.227Z,4.90
2023-05-05T21:21:53.646Z,4.97
2023-05-05T21:25:12.983Z,4.47
2023-05-05T21:28:16.598Z,4.28
2023-05-05T21:31:22.162Z,4.70
2023-05-05T21:34:25.635Z,4.40
2023-05-05T21:37:28.946Z,4.63
2023-05-05T21:40:33.764Z,4.68
2023-05-05T21:43:37.052Z,5.10
2023-05-05T21:46:40.888Z,4.93
2023-05-05T21:49:44.543Z,4.97
2023-05-05T21:52:49.023Z,5.10
2023-05-05T21:55:53.834Z,5.00
2023-05-05T21:58:57.553Z,5.15
2023-05-05T22:02:01.029Z,5.00
2023-05-05T22:05:04.380Z,5.18
2023-05-05T22:08:07.620Z,5.43
2023-05-05T22:11:14.897Z,5.53
2023-05-05T22:14:18.279Z,5.32
2023-05-05T22:17:21.950Z,5.13
2023-05-05T22:20:25.336Z,5.18
2023-05-05T22:23:28.623Z,5.25
2023-05-05T22:26:33.215Z,4.38
2023-05-05T22:29:37.049Z,4.85
2023-05-05T22:32:43.285Z,4.95
2023-05-05T22:35:46.690Z,4.38
2023-05-05T22:38:49.896Z,4.60
2023-05-05T22:41:54.561Z,5.10
2023-05-05T22:44:57.896Z,4.72
2023-05-05T22:48:02.390Z,4.05
2023-05-05T22:51:05.785Z,4.43
2023-05-05T22:54:09.051Z,4.40
2023-05-05T22:57:14.074Z,4.60
2023-05-05T23:00:17.550Z,4.22
2023-05-05T23:03:20.862Z,4.70
2023-05-05T23:06:24.038Z,4.70
2023-05-05T23:09:27.212Z,4.55
2023-05-05T23:12:31.919Z,4.97
2023-05-05T23:15:35.636Z,4.35
2023-05-05T23:18:38.935Z,4.15
2023-05-05T23:21:52.741Z,4.10
2023-05-05T23:24:57.051Z,4.35
2023-05-05T23:28:01.653Z,4.05
2023-05-05T23:31:05.170Z,4.47
2023-05-05T23:34:08.451Z,4.00
2023-05-05T23:37:11.722Z,3.53
2023-05-05T23:40:14.849Z,3.75
2023-05-05T23:43:19.370Z,3.90
2023-05-05T23:46:22.566Z,3.80
2023-05-05T23:49:26.422Z,3.70
2023-05-05T23:52:29.623Z,4.22
2023-05-05T23:55:32.803Z,3.67
2023-05-05T23:58:37.393Z,3.63
